sensor_id;sensor_type;location;lat;lon;timestamp;temperature;humidity
67163;DHT22;54092;53.088;8.850;2023-08-12T00:00:16;20.70;99.90
67163;DHT22;54092;53.088;8.850;2023-08-12T00:02:42;20.60;99.90
67163;DHT22;54092;53.088;8.850;2023-08-12T00:05:09;20.50;99.90
67163;DHT22;54092;53.088;8.850;2023-08-12T00:07:37;20.50;99.90
67163;DHT22;54092;53.088;8.850;2023-08-12T00:10:04;20.50;99.90
67163;DHT22;54092;53.088;8.850;2023-08-12T00:12:32;20.60;99.90
67163;DHT22;54092;53.088;8.850;2023-08-12T00:14:58;20.60;99.90
67163;DHT22;54092;53.088;8.850;2023-08-12T00:17:24;20.50;99.90
67163;DHT22;54092;53.088;8.850;2023-08-12T00:19:49;20.50;99.90
67163;DHT22;54092;53.088;8.850;2023-08-12T00:22:15;20.50;99.90
67163;DHT22;54092;53.088;8.850;2023-08-12T00:24:41;20.40;99.90
67163;DHT22;54092;53.088;8.850;2023-08-12T00:27:06;20.40;99.90
67163;DHT22;54092;53.088;8.850;2023-08-12T00:29:34;20.40;99.90
67163;DHT22;54092;53.088;8.850;2023-08-12T00:32:00;20.50;99.90
67163;DHT22;54092;53.088;8.850;2023-08-12T00:34:26;20.40;99.90
67163;DHT22;54092;53.088;8.850;2023-08-12T00:36:51;20.40;99.90
67163;DHT22;54092;53.088;8.850;2023-08-12T00:39:17;20.40;99.90
67163;DHT22;54092;53.088;8.850;2023-08-12T00:41:42;20.40;99.90
67163;DHT22;54092;53.088;8.850;2023-08-12T00:44:08;20.40;99.90
67163;DHT22;54092;53.088;8.850;2023-08-12T00:46:34;20.40;99.90
67163;DHT22;54092;53.088;8.850;2023-08-12T00:49:00;20.30;99.90
67163;DHT22;54092;53.088;8.850;2023-08-12T00:51:26;20.30;99.90
67163;DHT22;54092;53.088;8.850;2023-08-12T00:53:53;20.30;99.90
67163;DHT22;54092;53.088;8.850;2023-08-12T00:56:20;20.30;99.90
67163;DHT22;54092;53.088;8.850;2023-08-12T00:58:46;20.30;99.90
67163;DHT22;54092;53.088;8.850;2023-08-12T01:01:12;20.30;99.90
67163;DHT22;54092;53.088;8.850;2023-08-12T01:03:38;20.30;99.90
67163;DHT22;54092;53.088;8.850;2023-08-12T01:06:04;20.30;99.90
67163;DHT22;54092;53.088;8.850;2023-08-12T01:08:32;20.40;99.90
67163;DHT22;54092;53.088;8.850;2023-08-12T01:11:15;20.40;99.90
67163;DHT22;54092;53.088;8.850;2023-08-12T01:14:18;20.40;99.90
67163;DHT22;54092;53.088;8.850;2023-08-12T01:16:50;20.40;99.90
67163;DHT22;54092;53.088;8.850;2023-08-12T01:19:34;20.50;99.90
67163;DHT22;54092;53.088;8.850;2023-08-12T01:22:01;20.40;99.90
67163;DHT22;54092;53.088;8.850;2023-08-12T01:24:33;20.40;99.90
67163;DHT22;54092;53.088;8.850;2023-08-12T01:27:00;20.40;99.90
67163;DHT22;54092;53.088;8.850;2023-08-12T01:29:25;20.40;99.90
67163;DHT22;54092;53.088;8.850;2023-08-12T01:31:55;20.40;99.90
67163;DHT22;54092;53.088;8.850;2023-08-12T01:34:36;20.30;99.90
67163;DHT22;54092;53.088;8.850;2023-08-12T01:37:05;20.30;99.90
67163;DHT22;54092;53.088;8.850;2023-08-12T01:39:32;20.20;99.90
67163;DHT22;54092;53.088;8.850;2023-08-12T01:41:59;20.20;99.90
67163;DHT22;54092;53.088;8.850;2023-08-12T01:44:25;20.20;99.90
67163;DHT22;54092;53.088;8.850;2023-08-12T01:46:50;20.10;99.90
67163;DHT22;54092;53.088;8.850;2023-08-12T01:49:16;20.20;99.90
67163;DHT22;54092;53.088;8.850;2023-08-12T01:51:41;20.10;99.90
67163;DHT22;54092;53.088;8.850;2023-08-12T01:54:07;20.10;99.90
67163;DHT22;54092;53.088;8.850;2023-08-12T01:56:32;20.10;99.90
67163;DHT22;54092;53.088;8.850;2023-08-12T01:58:58;20.10;99.90
67163;DHT22;54092;53.088;8.850;2023-08-12T02:01:23;20.00;99.90
67163;DHT22;54092;53.088;8.850;2023-08-12T02:03:49;20.00;99.90
67163;DHT22;54092;53.088;8.850;2023-08-12T02:06:14;20.00;99.90
67163;DHT22;54092;53.088;8.850;2023-08-12T02:08:40;20.00;99.90
67163;DHT22;54092;53.088;8.850;2023-08-12T02:11:05;20.00;99.90
67163;DHT22;54092;53.088;8.850;2023-08-12T02:13:31;20.00;99.90
67163;DHT22;54092;53.088;8.850;2023-08-12T02:15:56;20.00;99.90
67163;DHT22;54092;53.088;8.850;2023-08-12T02:18:22;20.00;99.90
67163;DHT22;54092;53.088;8.850;2023-08-12T02:20:48;20.00;99.90
67163;DHT22;54092;53.088;8.850;2023-08-12T02:23:14;20.00;99.90
67163;DHT22;54092;53.088;8.850;2023-08-12T02:25:39;20.00;99.90
67163;DHT22;54092;53.088;8.850;2023-08-12T02:28:05;20.10;99.90
67163;DHT22;54092;53.088;8.850;2023-08-12T02:30:30;20.10;99.90
67163;DHT22;54092;53.088;8.850;2023-08-12T02:32:56;20.10;99.90
67163;DHT22;54092;53.088;8.850;2023-08-12T02:35:21;20.10;99.90
67163;DHT22;54092;53.088;8.850;2023-08-12T02:37:50;20.10;99.90
67163;DHT22;54092;53.088;8.850;2023-08-12T02:40:16;20.00;99.90
67163;DHT22;54092;53.088;8.850;2023-08-12T02:42:41;20.10;99.90
67163;DHT22;54092;53.088;8.850;2023-08-12T02:45:07;20.10;99.90
67163;DHT22;54092;53.088;8.850;2023-08-12T02:47:33;20.10;99.90
67163;DHT22;54092;53.088;8.850;2023-08-12T02:49:58;20.00;99.90
67163;DHT22;54092;53.088;8.850;2023-08-12T02:52:24;20.00;99.90
67163;DHT22;54092;53.088;8.850;2023-08-12T02:54:49;20.00;99.90
67163;DHT22;54092;53.088;8.850;2023-08-12T02:57:15;19.90;99.90
67163;DHT22;54092;53.088;8.850;2023-08-12T02:59:40;19.90;99.90
67163;DHT22;54092;53.088;8.850;2023-08-12T03:02:06;19.90;99.90
67163;DHT22;54092;53.088;8.850;2023-08-12T03:04:31;19.80;99.90
67163;DHT22;54092;53.088;8.850;2023-08-12T03:06:57;19.80;99.90
67163;DHT22;54092;53.088;8.850;2023-08-12T03:09:22;19.70;99.90
67163;DHT22;54092;53.088;8.850;2023-08-12T03:11:48;19.70;99.90
67163;DHT22;54092;53.088;8.850;2023-08-12T03:14:13;19.60;99.90
67163;DHT22;54092;53.088;8.850;2023-08-12T03:16:39;19.50;99.90
67163;DHT22;54092;53.088;8.850;2023-08-12T03:19:05;19.50;99.90
67163;DHT22;54092;53.088;8.850;2023-08-12T03:21:30;19.50;99.90
67163;DHT22;54092;53.088;8.850;2023-08-12T03:23:56;19.40;99.90
67163;DHT22;54092;53.088;8.850;2023-08-12T03:26:22;19.30;99.90
67163;DHT22;54092;53.088;8.850;2023-08-12T03:28:47;19.30;99.90
67163;DHT22;54092;53.088;8.850;2023-08-12T03:31:12;19.30;99.90
67163;DHT22;54092;53.088;8.850;2023-08-12T03:33:38;19.30;99.90
67163;DHT22;54092;53.088;8.850;2023-08-12T03:36:04;19.30;99.90
67163;DHT22;54092;53.088;8.850;2023-08-12T03:38:29;19.30;99.90
67163;DHT22;54092;53.088;8.850;2023-08-12T03:40:55;19.30;99.90
67163;DHT22;54092;53.088;8.850;2023-08-12T03:43:20;19.30;99.90
67163;DHT22;54092;53.088;8.850;2023-08-12T03:45:46;19.20;99.90
67163;DHT22;54092;53.088;8.850;2023-08-12T03:48:12;19.20;99.90
67163;DHT22;54092;53.088;8.850;2023-08-12T03:50:38;19.20;99.90
67163;DHT22;54092;53.088;8.850;2023-08-12T03:53:04;19.10;99.90
67163;DHT22;54092;53.088;8.850;2023-08-12T03:55:31;19.10;99.90
67163;DHT22;54092;53.088;8.850;2023-08-12T03:57:57;19.10;99.90
67163;DHT22;54092;53.088;8.850;2023-08-12T04:00:23;19.10;99.90
67163;DHT22;54092;53.088;8.850;2023-08-12T04:02:48;19.10;99.90
67163;DHT22;54092;53.088;8.850;2023-08-12T04:05:14;19.10;99.90
67163;DHT22;54092;53.088;8.850;2023-08-12T04:07:40;19.10;99.90
67163;DHT22;54092;53.088;8.850;2023-08-12T04:10:06;19.10;99.90
67163;DHT22;54092;53.088;8.850;2023-08-12T04:12:32;19.10;99.90
67163;DHT22;54092;53.088;8.850;2023-08-12T04:14:58;19.10;99.90
67163;DHT22;54092;53.088;8.850;2023-08-12T04:17:23;19.20;99.90
67163;DHT22;54092;53.088;8.850;2023-08-12T04:19:49;19.20;99.90
67163;DHT22;54092;53.088;8.850;2023-08-12T04:22:15;19.20;99.90
67163;DHT22;54092;53.088;8.850;2023-08-12T04:24:40;19.20;99.90
67163;DHT22;54092;53.088;8.850;2023-08-12T04:27:06;19.20;99.90
67163;DHT22;54092;53.088;8.850;2023-08-12T04:29:31;19.30;99.90
67163;DHT22;54092;53.088;8.850;2023-08-12T04:31:57;19.30;99.90
67163;DHT22;54092;53.088;8.850;2023-08-12T04:34:22;19.30;99.90
67163;DHT22;54092;53.088;8.850;2023-08-12T04:36:48;19.30;99.90
67163;DHT22;54092;53.088;8.850;2023-08-12T04:39:13;19.30;99.90
67163;DHT22;54092;53.088;8.850;2023-08-12T04:41:39;19.30;99.90
67163;DHT22;54092;53.088;8.850;2023-08-12T04:44:05;19.30;99.90
67163;DHT22;54092;53.088;8.850;2023-08-12T04:46:30;19.30;99.90
67163;DHT22;54092;53.088;8.850;2023-08-12T04:48:56;19.30;99.90
67163;DHT22;54092;53.088;8.850;2023-08-12T04:51:22;19.30;99.90
67163;DHT22;54092;53.088;8.850;2023-08-12T04:53:47;19.30;99.90
67163;DHT22;54092;53.088;8.850;2023-08-12T04:56:13;19.30;99.90
67163;DHT22;54092;53.088;8.850;2023-08-12T04:58:38;19.30;99.90
67163;DHT22;54092;53.088;8.850;2023-08-12T05:01:04;19.30;99.90
67163;DHT22;54092;53.088;8.850;2023-08-12T05:03:29;19.30;99.90
67163;DHT22;54092;53.088;8.850;2023-08-12T05:05:55;19.40;99.90
67163;DHT22;54092;53.088;8.850;2023-08-12T05:08:20;19.40;99.90
67163;DHT22;54092;53.088;8.850;2023-08-12T05:10:49;19.40;99.90
67163;DHT22;54092;53.088;8.850;2023-08-12T05:13:15;19.40;99.90
67163;DHT22;54092;53.088;8.850;2023-08-12T05:15:41;19.40;99.90
67163;DHT22;54092;53.088;8.850;2023-08-12T05:18:07;19.40;99.90
67163;DHT22;54092;53.088;8.850;2023-08-12T05:20:32;19.40;99.90
67163;DHT22;54092;53.088;8.850;2023-08-12T05:22:58;19.30;99.90
67163;DHT22;54092;53.088;8.850;2023-08-12T05:25:23;19.40;99.90
67163;DHT22;54092;53.088;8.850;2023-08-12T05:27:49;19.30;99.90
67163;DHT22;54092;53.088;8.850;2023-08-12T05:30:15;19.40;99.90
67163;DHT22;54092;53.088;8.850;2023-08-12T05:32:41;19.40;99.90
67163;DHT22;54092;53.088;8.850;2023-08-12T05:35:07;19.40;99.90
67163;DHT22;54092;53.088;8.850;2023-08-12T05:37:32;19.30;99.90
67163;DHT22;54092;53.088;8.850;2023-08-12T05:39:58;19.40;99.90
67163;DHT22;54092;53.088;8.850;2023-08-12T05:42:23;19.40;99.90
67163;DHT22;54092;53.088;8.850;2023-08-12T05:44:49;19.30;99.90
67163;DHT22;54092;53.088;8.850;2023-08-12T05:47:14;19.40;99.90
67163;DHT22;54092;53.088;8.850;2023-08-12T05:49:40;19.40;99.90
67163;DHT22;54092;53.088;8.850;2023-08-12T05:52:05;19.40;99.90
67163;DHT22;54092;53.088;8.850;2023-08-12T05:54:31;19.40;99.90
67163;DHT22;54092;53.088;8.850;2023-08-12T05:56:58;19.50;99.90
67163;DHT22;54092;53.088;8.850;2023-08-12T05:59:24;19.50;99.90
67163;DHT22;54092;53.088;8.850;2023-08-12T06:01:49;19.50;99.90
67163;DHT22;54092;53.088;8.850;2023-08-12T06:04:15;19.50;99.90
67163;DHT22;54092;53.088;8.850;2023-08-12T06:06:41;19.50;99.90
67163;DHT22;54092;53.088;8.850;2023-08-12T06:09:07;19.40;99.90
67163;DHT22;54092;53.088;8.850;2023-08-12T06:11:32;19.40;99.90
67163;DHT22;54092;53.088;8.850;2023-08-12T06:13:58;19.40;99.90
67163;DHT22;54092;53.088;8.850;2023-08-12T06:16:23;19.40;99.90
67163;DHT22;54092;53.088;8.850;2023-08-12T06:18:49;19.40;99.90
67163;DHT22;54092;53.088;8.850;2023-08-12T06:21:14;19.50;99.90
67163;DHT22;54092;53.088;8.850;2023-08-12T06:23:40;19.50;99.90
67163;DHT22;54092;53.088;8.850;2023-08-12T06:26:05;19.50;99.90
67163;DHT22;54092;53.088;8.850;2023-08-12T06:28:31;19.50;99.90
67163;DHT22;54092;53.088;8.850;2023-08-12T06:30:56;19.50;99.90
67163;DHT22;54092;53.088;8.850;2023-08-12T06:33:23;19.50;99.90
67163;DHT22;54092;53.088;8.850;2023-08-12T06:35:50;19.60;99.90
67163;DHT22;54092;53.088;8.850;2023-08-12T06:38:15;19.60;99.90
67163;DHT22;54092;53.088;8.850;2023-08-12T06:40:41;19.60;99.90
67163;DHT22;54092;53.088;8.850;2023-08-12T06:43:06;19.60;99.90
67163;DHT22;54092;53.088;8.850;2023-08-12T06:45:34;19.60;99.90
67163;DHT22;54092;53.088;8.850;2023-08-12T06:47:59;19.60;99.90
67163;DHT22;54092;53.088;8.850;2023-08-12T06:50:25;19.60;99.90
67163;DHT22;54092;53.088;8.850;2023-08-12T06:52:51;19.60;99.90
67163;DHT22;54092;53.088;8.850;2023-08-12T06:55:16;19.60;99.90
67163;DHT22;54092;53.088;8.850;2023-08-12T06:57:42;19.60;99.90
67163;DHT22;54092;53.088;8.850;2023-08-12T07:00:08;19.70;99.90
67163;DHT22;54092;53.088;8.850;2023-08-12T07:02:33;19.70;99.90
67163;DHT22;54092;53.088;8.850;2023-08-12T07:04:59;19.80;99.90
67163;DHT22;54092;53.088;8.850;2023-08-12T07:07:24;19.90;99.90
67163;DHT22;54092;53.088;8.850;2023-08-12T07:09:50;19.90;99.90
67163;DHT22;54092;53.088;8.850;2023-08-12T07:12:15;19.90;99.90
67163;DHT22;54092;53.088;8.850;2023-08-12T07:14:41;19.80;99.90
67163;DHT22;54092;53.088;8.850;2023-08-12T07:17:06;19.90;99.90
67163;DHT22;54092;53.088;8.850;2023-08-12T07:19:32;19.80;99.90
67163;DHT22;54092;53.088;8.850;2023-08-12T07:21:57;19.80;99.90
67163;DHT22;54092;53.088;8.850;2023-08-12T07:24:23;19.90;99.90
67163;DHT22;54092;53.088;8.850;2023-08-12T07:26:48;19.80;99.90
67163;DHT22;54092;53.088;8.850;2023-08-12T07:29:14;19.80;99.90
67163;DHT22;54092;53.088;8.850;2023-08-12T07:31:39;19.90;99.90
67163;DHT22;54092;53.088;8.850;2023-08-12T07:34:05;19.90;99.90
67163;DHT22;54092;53.088;8.850;2023-08-12T07:36:32;19.90;99.90
67163;DHT22;54092;53.088;8.850;2023-08-12T07:38:58;19.80;99.90
67163;DHT22;54092;53.088;8.850;2023-08-12T07:41:23;19.80;99.90
67163;DHT22;54092;53.088;8.850;2023-08-12T07:43:52;19.70;99.90
67163;DHT22;54092;53.088;8.850;2023-08-12T07:46:18;19.70;99.90
67163;DHT22;54092;53.088;8.850;2023-08-12T07:48:43;19.70;99.90
67163;DHT22;54092;53.088;8.850;2023-08-12T07:51:09;19.70;99.90
67163;DHT22;54092;53.088;8.850;2023-08-12T07:53:35;19.80;99.90
67163;DHT22;54092;53.088;8.850;2023-08-12T07:56:00;19.90;99.90
67163;DHT22;54092;53.088;8.850;2023-08-12T07:58:26;19.90;99.90
67163;DHT22;54092;53.088;8.850;2023-08-12T08:00:54;20.00;99.90
67163;DHT22;54092;53.088;8.850;2023-08-12T08:03:20;20.10;99.90
67163;DHT22;54092;53.088;8.850;2023-08-12T08:05:45;20.10;99.90
67163;DHT22;54092;53.088;8.850;2023-08-12T08:08:12;20.20;99.90
67163;DHT22;54092;53.088;8.850;2023-08-12T08:10:38;20.20;99.90
67163;DHT22;54092;53.088;8.850;2023-08-12T08:13:03;20.20;99.90
67163;DHT22;54092;53.088;8.850;2023-08-12T08:15:29;20.30;99.90
67163;DHT22;54092;53.088;8.850;2023-08-12T08:17:54;20.30;99.90
67163;DHT22;54092;53.088;8.850;2023-08-12T08:20:20;20.30;99.90
67163;DHT22;54092;53.088;8.850;2023-08-12T08:22:46;20.30;99.90
67163;DHT22;54092;53.088;8.850;2023-08-12T08:25:12;20.30;99.90
67163;DHT22;54092;53.088;8.850;2023-08-12T08:27:38;20.40;99.90
67163;DHT22;54092;53.088;8.850;2023-08-12T08:30:04;20.50;99.90
67163;DHT22;54092;53.088;8.850;2023-08-12T08:32:30;20.50;99.90
67163;DHT22;54092;53.088;8.850;2023-08-12T08:34:56;20.50;99.90
67163;DHT22;54092;53.088;8.850;2023-08-12T08:37:21;20.50;99.90
67163;DHT22;54092;53.088;8.850;2023-08-12T08:39:47;20.60;99.90
67163;DHT22;54092;53.088;8.850;2023-08-12T08:42:12;20.50;99.90
67163;DHT22;54092;53.088;8.850;2023-08-12T08:44:40;20.60;99.90
67163;DHT22;54092;53.088;8.850;2023-08-12T08:47:08;20.60;99.90
67163;DHT22;54092;53.088;8.850;2023-08-12T08:49:34;20.60;99.90
67163;DHT22;54092;53.088;8.850;2023-08-12T08:52:01;20.60;99.90
67163;DHT22;54092;53.088;8.850;2023-08-12T08:54:27;20.50;99.90
67163;DHT22;54092;53.088;8.850;2023-08-12T08:56:53;20.50;99.90
67163;DHT22;54092;53.088;8.850;2023-08-12T08:59:20;20.50;99.90
67163;DHT22;54092;53.088;8.850;2023-08-12T09:01:49;20.50;99.90
67163;DHT22;54092;53.088;8.850;2023-08-12T09:04:16;20.50;99.90
67163;DHT22;54092;53.088;8.850;2023-08-12T09:06:43;20.50;99.90
67163;DHT22;54092;53.088;8.850;2023-08-12T09:09:12;20.60;99.90
67163;DHT22;54092;53.088;8.850;2023-08-12T09:11:41;20.60;99.90
67163;DHT22;54092;53.088;8.850;2023-08-12T09:14:07;20.60;99.90
67163;DHT22;54092;53.088;8.850;2023-08-12T09:16:32;20.60;99.90
67163;DHT22;54092;53.088;8.850;2023-08-12T09:18:58;20.60;99.90
67163;DHT22;54092;53.088;8.850;2023-08-12T09:21:23;20.50;99.90
67163;DHT22;54092;53.088;8.850;2023-08-12T09:23:49;20.50;99.90
67163;DHT22;54092;53.088;8.850;2023-08-12T09:26:19;20.40;99.90
67163;DHT22;54092;53.088;8.850;2023-08-12T09:28:47;20.40;99.90
67163;DHT22;54092;53.088;8.850;2023-08-12T09:31:27;20.30;99.90
67163;DHT22;54092;53.088;8.850;2023-08-12T09:34:14;20.30;99.90
67163;DHT22;54092;53.088;8.850;2023-08-12T09:36:40;20.30;99.90
67163;DHT22;54092;53.088;8.850;2023-08-12T09:39:07;20.30;99.90
67163;DHT22;54092;53.088;8.850;2023-08-12T09:41:34;20.30;99.90
67163;DHT22;54092;53.088;8.850;2023-08-12T09:44:01;20.30;99.90
67163;DHT22;54092;53.088;8.850;2023-08-12T09:46:27;20.30;99.90
67163;DHT22;54092;53.088;8.850;2023-08-12T09:48:53;20.30;99.90
67163;DHT22;54092;53.088;8.850;2023-08-12T09:51:19;20.30;99.90
67163;DHT22;54092;53.088;8.850;2023-08-12T09:53:47;20.20;99.90
67163;DHT22;54092;53.088;8.850;2023-08-12T09:56:14;20.20;99.90
67163;DHT22;54092;53.088;8.850;2023-08-12T09:58:42;20.10;99.90
67163;DHT22;54092;53.088;8.850;2023-08-12T10:01:10;20.00;99.90
67163;DHT22;54092;53.088;8.850;2023-08-12T10:03:37;20.00;99.90
67163;DHT22;54092;53.088;8.850;2023-08-12T10:06:03;20.00;99.90
67163;DHT22;54092;53.088;8.850;2023-08-12T10:08:28;20.00;99.90
67163;DHT22;54092;53.088;8.850;2023-08-12T10:10:55;20.00;99.90
67163;DHT22;54092;53.088;8.850;2023-08-12T10:13:23;19.90;99.90
67163;DHT22;54092;53.088;8.850;2023-08-12T10:15:50;19.90;99.90
67163;DHT22;54092;53.088;8.850;2023-08-12T10:18:16;20.00;99.90
67163;DHT22;54092;53.088;8.850;2023-08-12T10:20:44;20.00;99.90
67163;DHT22;54092;53.088;8.850;2023-08-12T10:23:15;20.00;99.90
67163;DHT22;54092;53.088;8.850;2023-08-12T10:25:43;20.10;99.90
67163;DHT22;54092;53.088;8.850;2023-08-12T10:28:09;20.10;99.90
67163;DHT22;54092;53.088;8.850;2023-08-12T10:30:34;20.10;99.90
67163;DHT22;54092;53.088;8.850;2023-08-12T10:33:00;20.20;99.90
67163;DHT22;54092;53.088;8.850;2023-08-12T10:35:46;20.20;99.90
67163;DHT22;54092;53.088;8.850;2023-08-12T10:38:19;20.20;99.90
67163;DHT22;54092;53.088;8.850;2023-08-12T10:40:47;20.10;99.90
67163;DHT22;54092;53.088;8.850;2023-08-12T10:43:13;20.10;99.90
67163;DHT22;54092;53.088;8.850;2023-08-12T10:45:43;20.10;99.90
67163;DHT22;54092;53.088;8.850;2023-08-12T10:48:26;20.00;99.90
67163;DHT22;54092;53.088;8.850;2023-08-12T10:50:57;20.00;99.90
67163;DHT22;54092;53.088;8.850;2023-08-12T10:53:25;20.00;99.90
67163;DHT22;54092;53.088;8.850;2023-08-12T10:55:59;20.00;99.90
67163;DHT22;54092;53.088;8.850;2023-08-12T10:58:47;20.00;99.90
67163;DHT22;54092;53.088;8.850;2023-08-12T11:01:23;20.00;99.90
67163;DHT22;54092;53.088;8.850;2023-08-12T11:03:50;20.10;99.90
67163;DHT22;54092;53.088;8.850;2023-08-12T11:06:15;20.10;99.90
67163;DHT22;54092;53.088;8.850;2023-08-12T11:08:55;20.30;99.90
67163;DHT22;54092;53.088;8.850;2023-08-12T11:11:24;20.50;99.90
67163;DHT22;54092;53.088;8.850;2023-08-12T11:13:54;20.60;99.90
67163;DHT22;54092;53.088;8.850;2023-08-12T11:16:20;20.60;99.90
67163;DHT22;54092;53.088;8.850;2023-08-12T11:18:57;20.70;99.90
67163;DHT22;54092;53.088;8.850;2023-08-12T11:21:23;20.60;99.90
67163;DHT22;54092;53.088;8.850;2023-08-12T11:23:50;20.50;99.90
67163;DHT22;54092;53.088;8.850;2023-08-12T11:26:15;20.50;99.90
67163;DHT22;54092;53.088;8.850;2023-08-12T11:28:41;20.40;99.90
67163;DHT22;54092;53.088;8.850;2023-08-12T11:31:07;20.40;99.90
67163;DHT22;54092;53.088;8.850;2023-08-12T11:33:33;20.30;99.90
67163;DHT22;54092;53.088;8.850;2023-08-12T11:35:59;20.30;99.90
67163;DHT22;54092;53.088;8.850;2023-08-12T11:38:24;20.20;99.90
67163;DHT22;54092;53.088;8.850;2023-08-12T11:40:50;20.20;99.90
67163;DHT22;54092;53.088;8.850;2023-08-12T11:43:15;20.20;99.90
67163;DHT22;54092;53.088;8.850;2023-08-12T11:45:42;20.20;99.90
67163;DHT22;54092;53.088;8.850;2023-08-12T11:48:08;20.30;99.90
67163;DHT22;54092;53.088;8.850;2023-08-12T11:50:34;20.50;99.90
67163;DHT22;54092;53.088;8.850;2023-08-12T11:53:00;20.70;99.90
67163;DHT22;54092;53.088;8.850;2023-08-12T11:55:26;21.00;99.90
67163;DHT22;54092;53.088;8.850;2023-08-12T11:57:51;21.10;99.90
67163;DHT22;54092;53.088;8.850;2023-08-12T12:00:17;21.00;99.90
67163;DHT22;54092;53.088;8.850;2023-08-12T12:02:52;21.00;99.90
67163;DHT22;54092;53.088;8.850;2023-08-12T12:05:20;21.00;99.90
67163;DHT22;54092;53.088;8.850;2023-08-12T12:07:48;20.90;99.90
67163;DHT22;54092;53.088;8.850;2023-08-12T12:10:26;20.90;99.90
67163;DHT22;54092;53.088;8.850;2023-08-12T12:12:54;20.90;99.90
67163;DHT22;54092;53.088;8.850;2023-08-12T12:15:20;20.90;99.90
67163;DHT22;54092;53.088;8.850;2023-08-12T12:17:49;20.80;99.90
67163;DHT22;54092;53.088;8.850;2023-08-12T12:20:15;20.80;99.90
67163;DHT22;54092;53.088;8.850;2023-08-12T12:22:42;20.80;99.90
67163;DHT22;54092;53.088;8.850;2023-08-12T12:25:12;21.00;99.90
67163;DHT22;54092;53.088;8.850;2023-08-12T12:27:39;21.30;99.90
67163;DHT22;54092;53.088;8.850;2023-08-12T12:30:09;21.40;99.90
67163;DHT22;54092;53.088;8.850;2023-08-12T12:32:35;21.50;99.90
67163;DHT22;54092;53.088;8.850;2023-08-12T12:35:01;21.60;99.90
67163;DHT22;54092;53.088;8.850;2023-08-12T12:37:27;21.50;99.90
67163;DHT22;54092;53.088;8.850;2023-08-12T12:39:52;21.40;99.90
67163;DHT22;54092;53.088;8.850;2023-08-12T12:42:18;21.30;99.90
67163;DHT22;54092;53.088;8.850;2023-08-12T12:44:44;21.20;99.90
67163;DHT22;54092;53.088;8.850;2023-08-12T12:47:10;21.30;99.90
67163;DHT22;54092;53.088;8.850;2023-08-12T12:49:40;21.40;99.90
67163;DHT22;54092;53.088;8.850;2023-08-12T12:52:09;21.50;99.90
67163;DHT22;54092;53.088;8.850;2023-08-12T12:54:34;21.50;99.90
67163;DHT22;54092;53.088;8.850;2023-08-12T12:57:00;21.60;99.90
67163;DHT22;54092;53.088;8.850;2023-08-12T12:59:26;21.60;99.90
67163;DHT22;54092;53.088;8.850;2023-08-12T13:01:52;21.70;99.90
67163;DHT22;54092;53.088;8.850;2023-08-12T13:04:18;21.80;99.90
67163;DHT22;54092;53.088;8.850;2023-08-12T13:06:44;21.80;99.90
67163;DHT22;54092;53.088;8.850;2023-08-12T13:09:09;21.90;99.90
67163;DHT22;54092;53.088;8.850;2023-08-12T13:11:35;21.90;99.90
67163;DHT22;54092;53.088;8.850;2023-08-12T13:14:01;22.00;99.90
67163;DHT22;54092;53.088;8.850;2023-08-12T13:16:27;22.10;99.90
67163;DHT22;54092;53.088;8.850;2023-08-12T13:18:52;22.10;99.90
67163;DHT22;54092;53.088;8.850;2023-08-12T13:21:18;22.00;99.90
67163;DHT22;54092;53.088;8.850;2023-08-12T13:23:43;21.90;99.90
67163;DHT22;54092;53.088;8.850;2023-08-12T13:26:09;21.80;99.90
67163;DHT22;54092;53.088;8.850;2023-08-12T13:28:34;21.70;99.90
67163;DHT22;54092;53.088;8.850;2023-08-12T13:31:00;21.60;99.90
67163;DHT22;54092;53.088;8.850;2023-08-12T13:33:25;21.40;99.90
67163;DHT22;54092;53.088;8.850;2023-08-12T13:35:51;21.40;99.90
67163;DHT22;54092;53.088;8.850;2023-08-12T13:38:16;21.40;99.90
67163;DHT22;54092;53.088;8.850;2023-08-12T13:40:42;21.40;99.90
67163;DHT22;54092;53.088;8.850;2023-08-12T13:43:07;21.40;99.90
67163;DHT22;54092;53.088;8.850;2023-08-12T13:45:33;21.40;99.90
67163;DHT22;54092;53.088;8.850;2023-08-12T13:47:58;21.40;99.90
67163;DHT22;54092;53.088;8.850;2023-08-12T13:50:24;21.50;99.90
67163;DHT22;54092;53.088;8.850;2023-08-12T13:52:50;21.50;99.90
67163;DHT22;54092;53.088;8.850;2023-08-12T13:55:15;21.50;99.90
67163;DHT22;54092;53.088;8.850;2023-08-12T13:57:41;21.40;99.90
67163;DHT22;54092;53.088;8.850;2023-08-12T14:00:07;21.40;99.90
67163;DHT22;54092;53.088;8.850;2023-08-12T14:02:36;21.60;99.90
67163;DHT22;54092;53.088;8.850;2023-08-12T14:05:04;21.80;99.90
67163;DHT22;54092;53.088;8.850;2023-08-12T14:07:30;21.90;99.90
67163;DHT22;54092;53.088;8.850;2023-08-12T14:09:57;22.10;99.90
67163;DHT22;54092;53.088;8.850;2023-08-12T14:12:23;22.10;99.90
67163;DHT22;54092;53.088;8.850;2023-08-12T14:14:48;22.00;99.90
67163;DHT22;54092;53.088;8.850;2023-08-12T14:17:14;22.00;99.90
67163;DHT22;54092;53.088;8.850;2023-08-12T14:19:44;22.00;99.90
67163;DHT22;54092;53.088;8.850;2023-08-12T14:22:10;21.90;99.90
67163;DHT22;54092;53.088;8.850;2023-08-12T14:24:35;21.90;99.90
67163;DHT22;54092;53.088;8.850;2023-08-12T14:27:01;21.90;99.90
67163;DHT22;54092;53.088;8.850;2023-08-12T14:29:26;21.80;99.90
67163;DHT22;54092;53.088;8.850;2023-08-12T14:31:52;21.70;99.90
67163;DHT22;54092;53.088;8.850;2023-08-12T14:34:18;21.70;99.90
67163;DHT22;54092;53.088;8.850;2023-08-12T14:36:43;21.70;99.90
67163;DHT22;54092;53.088;8.850;2023-08-12T14:39:09;21.70;99.90
67163;DHT22;54092;53.088;8.850;2023-08-12T14:41:34;21.50;99.90
67163;DHT22;54092;53.088;8.850;2023-08-12T14:44:00;21.50;99.90
67163;DHT22;54092;53.088;8.850;2023-08-12T14:46:25;21.60;99.90
67163;DHT22;54092;53.088;8.850;2023-08-12T14:48:51;21.60;99.90
67163;DHT22;54092;53.088;8.850;2023-08-12T14:51:18;21.60;99.90
67163;DHT22;54092;53.088;8.850;2023-08-12T14:53:44;21.40;99.90
67163;DHT22;54092;53.088;8.850;2023-08-12T14:56:10;21.40;99.90
67163;DHT22;54092;53.088;8.850;2023-08-12T14:58:35;21.40;99.90
67163;DHT22;54092;53.088;8.850;2023-08-12T15:01:01;21.50;99.90
67163;DHT22;54092;53.088;8.850;2023-08-12T15:03:28;21.50;99.90
67163;DHT22;54092;53.088;8.850;2023-08-12T15:06:00;21.50;99.90
67163;DHT22;54092;53.088;8.850;2023-08-12T15:08:29;21.70;99.90
67163;DHT22;54092;53.088;8.850;2023-08-12T15:10:55;21.80;99.90
67163;DHT22;54092;53.088;8.850;2023-08-12T15:13:21;21.90;99.90
67163;DHT22;54092;53.088;8.850;2023-08-12T15:15:48;22.00;99.90
67163;DHT22;54092;53.088;8.850;2023-08-12T15:18:14;22.10;99.90
67163;DHT22;54092;53.088;8.850;2023-08-12T15:20:40;22.00;99.90
67163;DHT22;54092;53.088;8.850;2023-08-12T15:23:05;22.00;99.90
67163;DHT22;54092;53.088;8.850;2023-08-12T15:25:31;22.10;99.90